Time;durP1;ratioP1;P1;durP2;ratioP2;P2;SDS_P1;SDS_P2;PMS_P1;PMS_P2;Temp;Humidity;BMP_temperature;BMP_pressure;BME280_temperature;BME280_humidity;BME280_pressure;Samples;Min_cycle;Max_cycle;Signal;HPM_P1;HPM_P2
2021/09/06 00:03:51;;;;;;;9.53;8.23;;;;;;;19.96;55.28;98504.31;8437447;28;20242;-78
2021/09/06 00:07:56;;;;;;;12.17;8.07;;;;;;;19.99;54.77;98498.84;8450469;28;20213;-78
2021/09/06 00:11:59;;;;;;;12.93;8.73;;;;;;;19.90;55.45;98500.34;8450376;28;20203;-77
2021/09/06 00:16:03;;;;;;;11.73;8.67;;;;;;;19.92;54.82;98500.25;8450197;28;20237;-78
2021/09/06 00:20:09;;;;;;;10.87;8.57;;;;;;;19.86;55.21;98508.59;8449811;28;20255;-77
2021/09/06 00:24:12;;;;;;;9.13;8.20;;;;;;;19.83;55.08;98506.16;8450071;28;20202;-77
2021/09/06 00:28:15;;;;;;;11.90;8.13;;;;;;;19.81;54.67;98510.72;8450132;28;20197;-77
2021/09/06 00:32:17;;;;;;;10.83;8.30;;;;;;;19.69;55.00;98504.53;8449564;28;20198;-78
2021/09/06 00:36:22;;;;;;;9.73;8.00;;;;;;;19.67;54.96;98514.31;8449759;28;20304;-78
2021/09/06 00:40:24;;;;;;;12.10;8.00;;;;;;;19.63;54.69;98508.44;8449565;28;20198;-78
2021/09/06 00:44:27;;;;;;;8.97;8.00;;;;;;;19.61;54.78;98502.47;8449662;28;20389;-77
2021/09/06 00:48:31;;;;;;;11.57;8.67;;;;;;;19.55;55.06;98502.91;8449533;28;20507;-77
2021/09/06 00:52:35;;;;;;;12.13;9.13;;;;;;;19.53;55.21;98507.41;8449468;28;20206;-78
2021/09/06 00:56:38;;;;;;;10.50;8.43;;;;;;;19.60;54.92;98506.03;8449390;28;20199;-78
2021/09/06 01:00:41;;;;;;;10.40;8.73;;;;;;;19.43;54.91;98509.88;8449513;28;20206;-78
2021/09/06 01:04:44;;;;;;;9.20;7.93;;;;;;;19.45;54.75;98507.16;8419252;28;20242;-78
2021/09/06 01:08:48;;;;;;;9.00;7.67;;;;;;;19.41;54.45;98506.53;8415736;28;20205;-77
2021/09/06 01:12:51;;;;;;;7.57;6.87;;;;;;;19.38;54.27;98509.38;8415656;28;20425;-78
2021/09/06 01:16:54;;;;;;;10.13;7.33;;;;;;;19.25;54.40;98511.22;8415604;28;20206;-78
2021/09/06 01:20:56;;;;;;;8.63;7.80;;;;;;;19.24;54.27;98512.97;8415611;28;20198;-78
2021/09/06 01:25:01;;;;;;;9.40;7.30;;;;;;;19.24;54.54;98507.72;8415533;28;20203;-78
2021/09/06 01:29:08;;;;;;;9.13;8.13;;;;;;;19.24;54.94;98507.72;8415442;28;20328;-78
2021/09/06 01:33:11;;;;;;;9.03;8.10;;;;;;;19.22;54.91;98520.13;8419562;28;20227;-78
2021/09/06 01:37:14;;;;;;;11.07;8.60;;;;;;;19.19;55.40;98525.63;8421540;28;20199;-78
2021/09/06 01:41:17;;;;;;;9.27;8.10;;;;;;;19.14;55.36;98528.56;8421467;28;20207;-78
2021/09/06 01:45:21;;;;;;;9.07;8.17;;;;;;;19.14;54.99;98527.72;8421343;28;20203;-78
2021/09/06 01:49:24;;;;;;;10.63;7.70;;;;;;;19.08;55.22;98531.63;8420857;28;20198;-78
2021/09/06 01:53:27;;;;;;;8.53;7.23;;;;;;;19.08;54.51;98523.75;8421006;28;20233;-78
2021/09/06 01:57:30;;;;;;;9.57;8.13;;;;;;;19.05;54.67;98521.31;8420910;28;20203;-78
2021/09/06 02:01:34;;;;;;;9.23;8.33;;;;;;;18.97;55.22;98531.53;8420723;28;20219;-79
2021/09/06 02:05:37;;;;;;;8.67;7.77;;;;;;;18.94;55.40;98535.22;8420450;28;20242;-79
2021/09/06 02:09:40;;;;;;;9.20;8.00;;;;;;;18.91;55.09;98519.66;8420868;28;20203;-77
2021/09/06 02:13:43;;;;;;;8.97;8.07;;;;;;;18.82;55.37;98525.56;8420364;28;20556;-78
2021/09/06 02:17:47;;;;;;;8.80;7.87;;;;;;;18.82;55.48;98528.19;8420454;28;20199;-77
2021/09/06 02:21:50;;;;;;;9.40;8.17;;;;;;;18.78;55.55;98520.59;8420296;28;20396;-78
2021/09/06 02:25:53;;;;;;;10.70;8.27;;;;;;;18.71;55.64;98526.25;8420161;28;20203;-75
2021/09/06 02:29:55;;;;;;;10.23;8.23;;;;;;;18.69;55.71;98528.16;8420282;28;20199;-76
2021/09/06 02:34:00;;;;;;;10.73;8.13;;;;;;;18.68;55.83;98526.50;8419751;28;20231;-76
2021/09/06 02:38:03;;;;;;;10.67;8.43;;;;;;;18.68;55.66;98526.50;8420019;28;20221;-75
2021/09/06 02:42:05;;;;;;;12.33;8.70;;;;;;;18.66;55.54;98524.91;8419300;28;20199;-75
2021/09/06 02:46:08;;;;;;;9.10;8.20;;;;;;;18.61;55.56;98522.59;8419588;28;20202;-76
2021/09/06 02:50:13;;;;;;;10.80;7.77;;;;;;;18.61;55.01;98527.00;8419260;28;20203;-75
2021/09/06 02:54:16;;;;;;;8.53;7.43;;;;;;;18.62;54.98;98526.06;8419362;28;20227;-76
2021/09/06 02:58:19;;;;;;;8.57;7.67;;;;;;;18.48;55.24;98527.00;8418985;28;20199;-76
2021/09/06 03:02:22;;;;;;;8.37;7.57;;;;;;;18.42;55.38;98522.19;8418691;28;20199;-76
2021/09/06 03:06:26;;;;;;;9.23;8.30;;;;;;;18.47;55.53;98523.53;8418936;28;20242;-76
2021/09/06 03:10:31;;;;;;;8.57;7.67;;;;;;;18.45;55.30;98524.56;8418714;28;20199;-76
2021/09/06 03:14:33;;;;;;;10.37;9.00;;;;;;;18.43;55.06;98519.47;8418406;28;20261;-75
2021/09/06 03:18:36;;;;;;;13.73;8.60;;;;;;;18.40;55.26;98526.69;8418382;28;20512;-76
2021/09/06 03:22:40;;;;;;;13.77;10.00;;;;;;;18.16;56.06;98519.50;8417899;28;20203;-76
2021/09/06 03:26:43;;;;;;;11.93;9.57;;;;;;;18.21;56.12;98516.59;8418315;28;20210;-76
2021/09/06 03:30:46;;;;;;;10.27;9.17;;;;;;;18.33;55.59;98516.63;8418200;28;20206;-76
2021/09/06 03:34:49;;;;;;;12.73;9.33;;;;;;;18.34;55.36;98520.06;8417588;28;20230;-76
2021/09/06 03:38:55;;;;;;;10.80;9.70;;;;;;;18.32;55.02;98517.56;8417911;28;20513;-76
2021/09/06 03:43:00;;;;;;;9.97;8.87;;;;;;;18.28;55.13;98515.25;8417805;28;20203;-76
2021/09/06 03:47:04;;;;;;;11.70;8.77;;;;;;;18.23;55.32;98519.94;8417665;28;20203;-76
2021/09/06 03:51:06;;;;;;;11.10;9.00;;;;;;;18.19;55.38;98518.47;8417328;28;20202;-76
2021/09/06 03:55:11;;;;;;;9.70;8.70;;;;;;;18.22;55.16;98518.25;8416584;28;20231;-76
2021/09/06 03:59:14;;;;;;;12.63;9.20;;;;;;;18.19;55.42;98515.88;8438485;28;20195;-77
2021/09/06 04:03:17;;;;;;;11.93;9.20;;;;;;;18.08;56.29;98519.19;8433089;28;20203;-77
2021/09/06 04:07:20;;;;;;;9.47;8.57;;;;;;;18.20;55.86;98522.78;8416821;28;20226;-77
2021/09/06 04:11:24;;;;;;;9.43;8.50;;;;;;;18.17;55.80;98536.94;8416843;28;20199;-77
2021/09/06 04:15:27;;;;;;;11.80;8.57;;;;;;;18.17;55.62;98531.69;8416836;28;20227;-77
2021/09/06 04:19:31;;;;;;;9.07;8.17;;;;;;;18.12;55.46;98539.00;8416510;28;20199;-77
2021/09/06 04:23:34;;;;;;;9.47;8.57;;;;;;;18.08;55.57;98542.78;8416494;28;20199;-77
2021/09/06 04:27:39;;;;;;;9.43;8.43;;;;;;;17.94;56.53;98546.31;8416485;28;20206;-76
2021/09/06 04:31:41;;;;;;;13.13;8.63;;;;;;;17.93;57.03;98552.47;8396321;28;20200;-76
2021/09/06 04:35:44;;;;;;;8.60;7.80;;;;;;;17.99;56.92;98549.44;8382821;28;20235;-78
2021/09/06 04:39:47;;;;;;;10.67;7.63;;;;;;;18.04;56.77;98557.84;8396861;28;20200;-71
2021/09/06 04:43:51;;;;;;;9.63;8.27;;;;;;;18.04;56.62;98555.22;8398689;28;20517;-77
2021/09/06 04:47:56;;;;;;;10.27;8.43;;;;;;;18.00;56.94;98559.00;8400235;28;20219;-76
2021/09/06 04:51:59;;;;;;;10.80;8.10;;;;;;;18.06;56.24;98569.06;8412756;28;20195;-75
2021/09/06 04:56:02;;;;;;;10.70;8.17;;;;;;;18.00;56.40;98566.03;8415833;28;20226;-75
2021/09/06 05:00:07;;;;;;;8.63;7.73;;;;;;;18.02;55.96;98567.59;8415933;28;20206;-75
2021/09/06 05:04:10;;;;;;;9.37;8.00;;;;;;;17.99;56.23;98567.78;8415486;28;20424;-76
2021/09/06 05:08:16;;;;;;;9.67;8.03;;;;;;;17.96;56.50;98573.25;8404820;28;20196;-77
2021/09/06 05:12:19;;;;;;;11.53;8.43;;;;;;;18.05;56.52;98582.28;8404963;28;20192;-77
2021/09/06 05:16:24;;;;;;;12.00;8.70;;;;;;;18.11;56.55;98587.97;8404701;28;20526;-77
2021/09/06 05:20:26;;;;;;;12.20;8.40;;;;;;;18.15;56.53;98586.81;8404611;28;20241;-76
2021/09/06 05:24:31;;;;;;;10.07;7.83;;;;;;;18.15;57.03;98599.09;8404510;28;20210;-76
2021/09/06 05:28:34;;;;;;;12.70;8.80;;;;;;;18.39;56.43;98595.78;8404457;28;20194;-77
2021/09/06 05:32:38;;;;;;;11.87;8.80;;;;;;;18.54;56.26;98605.25;8404283;28;20211;-77
2021/09/06 05:36:41;;;;;;;16.80;10.27;;;;;;;18.57;56.41;98602.44;8404116;28;20557;-76
2021/09/06 05:40:44;;;;;;;13.70;8.33;;;;;;;18.71;56.06;98606.75;8404116;28;20191;-76
2021/09/06 05:44:49;;;;;;;13.23;8.80;;;;;;;18.85;55.34;98609.31;8403956;28;20195;-76
2021/09/06 05:48:53;;;;;;;10.80;8.77;;;;;;;19.11;55.15;98617.19;8403948;28;20369;-78
2021/09/06 05:52:56;;;;;;;10.93;8.70;;;;;;;19.48;54.66;98604.94;8403668;28;20191;-77
2021/09/06 05:56:59;;;;;;;12.83;9.33;;;;;;;19.47;54.90;98607.69;8403534;28;20229;-76
2021/09/06 06:01:03;;;;;;;10.67;9.60;;;;;;;19.47;55.09;98613.75;8403314;28;20198;-77
2021/09/06 06:05:08;;;;;;;13.10;9.50;;;;;;;19.77;54.78;98615.19;8405633;28;20242;-77
2021/09/06 06:09:16;;;;;;;10.63;9.50;;;;;;;19.58;54.68;98623.53;8403262;28;20387;-76
2021/09/06 06:13:19;;;;;;;13.27;10.00;;;;;;;19.77;53.66;98625.72;8403262;28;20210;-76
2021/09/06 06:17:22;;;;;;;14.70;10.13;;;;;;;19.83;53.11;98627.06;8404452;28;20219;-77
2021/09/06 06:21:26;;;;;;;12.43;11.10;;;;;;;20.06;52.87;98628.03;8404260;28;20198;-76
2021/09/06 06:25:30;;;;;;;13.87;11.73;;;;;;;19.87;52.62;98636.41;8402892;28;20521;-77
2021/09/06 06:29:32;;;;;;;12.70;11.40;;;;;;;19.60;53.56;98641.81;8402718;28;20409;-77
2021/09/06 06:33:35;;;;;;;12.37;10.90;;;;;;;19.86;52.98;98640.00;8403363;28;20215;-77
2021/09/06 06:37:40;;;;;;;13.63;10.53;;;;;;;20.22;52.35;98633.00;8402278;28;20241;-77
2021/09/06 06:41:42;;;;;;;13.63;11.37;;;;;;;20.26;52.48;98629.22;8402381;28;20199;-77
2021/09/06 06:45:45;;;;;;;15.37;11.63;;;;;;;20.42;52.01;98629.72;8402159;28;20396;-77
2021/09/06 06:49:55;;;;;;;16.80;11.33;;;;;;;20.47;51.81;98634.66;8394219;28;20408;-76
2021/09/06 06:54:01;;;;;;;14.87;11.03;;;;;;;20.64;51.09;98638.72;8399025;28;20246;-76
2021/09/06 06:58:03;;;;;;;15.67;11.27;;;;;;;20.77;51.29;98636.81;8399984;28;20411;-76
2021/09/06 07:02:06;;;;;;;12.43;11.10;;;;;;;20.95;51.15;98639.00;8402948;28;20539;-77
2021/09/06 07:06:10;;;;;;;16.33;11.10;;;;;;;20.87;51.23;98643.06;8396210;28;20232;-77
2021/09/06 07:10:14;;;;;;;14.70;12.03;;;;;;;21.02;50.42;98637.59;8396406;28;20196;-77
2021/09/06 07:14:17;;;;;;;14.67;11.50;;;;;;;21.23;51.31;98646.47;8401097;28;20200;-77
2021/09/06 07:18:20;;;;;;;16.20;11.40;;;;;;;21.33;51.09;98651.84;8400954;28;20226;-77
2021/09/06 07:22:23;;;;;;;17.43;11.77;;;;;;;21.35;50.99;98654.38;8410275;28;20219;-77
2021/09/06 07:26:27;;;;;;;15.23;12.60;;;;;;;21.34;51.20;98650.88;8417660;28;20207;-69
2021/09/06 07:30:32;;;;;;;17.07;11.63;;;;;;;21.21;51.55;98653.66;8397645;28;20205;-69
2021/09/06 07:34:36;;;;;;;18.17;11.87;;;;;;;21.56;51.72;98655.34;8404710;28;20218;-70
2021/09/06 07:38:38;;;;;;;13.47;11.70;;;;;;;21.51;51.50;98661.94;8416441;28;20244;-68
2021/09/06 07:42:43;;;;;;;16.33;12.67;;;;;;;21.60;50.31;98662.03;8417497;28;20508;-69
2021/09/06 07:46:46;;;;;;;12.73;11.43;;;;;;;21.64;51.39;98674.03;8417377;28;20207;-69
2021/09/06 07:50:48;;;;;;;16.00;11.97;;;;;;;21.95;50.21;98668.09;8401372;28;20191;-69
2021/09/06 07:54:51;;;;;;;14.77;12.50;;;;;;;22.41;49.26;98670.53;8383929;28;20207;-69
2021/09/06 07:58:55;;;;;;;15.83;12.20;;;;;;;22.58;49.49;98668.28;8396653;28;20202;-71
2021/09/06 08:02:58;;;;;;;24.73;13.63;;;;;;;22.56;49.17;98670.22;8415743;28;20203;-70
2021/09/06 08:07:01;;;;;;;19.37;13.33;;;;;;;22.56;49.04;98673.72;8399511;28;20240;-70
2021/09/06 08:11:04;;;;;;;16.77;12.80;;;;;;;23.00;48.71;98679.72;8386160;28;20195;-70
2021/09/06 08:15:11;;;;;;;63.50;14.10;;;;;;;23.17;47.54;98678.34;8392782;28;20198;-69
2021/09/06 08:19:14;;;;;;;22.13;12.27;;;;;;;23.28;46.66;98684.50;8416841;28;20199;-64
2021/09/06 08:23:17;;;;;;;16.13;12.50;;;;;;;23.70;46.01;98685.22;8416604;28;20203;-64
2021/09/06 08:27:21;;;;;;;17.27;11.50;;;;;;;24.21;46.02;98691.38;8410420;28;20199;-64
2021/09/06 08:31:29;;;;;;;20.57;10.83;;;;;;;24.54;44.99;98692.84;8383200;28;20218;-65
2021/09/06 08:35:32;;;;;;;14.47;12.03;;;;;;;24.81;44.31;98690.44;8382936;28;20341;-65
2021/09/06 08:39:37;;;;;;;12.77;11.23;;;;;;;25.13;44.19;98703.38;8382802;28;20210;-65
2021/09/06 08:43:40;;;;;;;17.00;13.27;;;;;;;24.80;42.37;98700.22;8382970;28;20211;-66
2021/09/06 08:47:44;;;;;;;23.90;11.97;;;;;;;25.38;42.58;98701.97;8382914;28;20501;-65
2021/09/06 08:51:47;;;;;;;22.83;10.73;;;;;;;25.90;41.90;98694.31;8382789;28;20206;-66
2021/09/06 08:55:50;;;;;;;16.27;11.77;;;;;;;25.81;41.49;98697.03;8382674;28;20224;-66
2021/09/06 09:00:15;;;;;;;15.57;11.50;;;;;;;26.31;41.17;98700.13;8382631;28;20201;-67
2021/09/06 09:04:21;;;;;;;14.07;11.93;;;;;;;26.44;40.40;98699.72;8407853;28;20235;-66
2021/09/06 09:08:24;;;;;;;20.23;11.50;;;;;;;26.69;40.21;98700.84;8415979;28;20498;-66
2021/09/06 09:12:28;;;;;;;14.77;12.00;;;;;;;26.90;39.18;98705.81;8415630;28;20200;-65
2021/09/06 09:16:31;;;;;;;14.43;10.93;;;;;;;27.15;39.26;98703.34;8415616;28;20223;-66
2021/09/06 09:20:40;;;;;;;17.57;11.60;;;;;;;26.89;38.90;98712.13;8415574;28;20255;-66
2021/09/06 09:24:45;;;;;;;14.67;11.17;;;;;;;27.41;38.26;98719.31;8415832;28;20201;-67
2021/09/06 09:28:50;;;;;;;18.90;11.73;;;;;;;27.58;38.07;98706.13;8415462;28;20224;-66
2021/09/06 09:33:04;;;;;;;14.03;11.67;;;;;;;27.66;36.61;98708.81;8415397;28;20229;-63
2021/09/06 09:37:12;;;;;;;13.97;11.40;;;;;;;27.75;36.20;98707.84;8415260;28;20261;-66
2021/09/06 09:41:16;;;;;;;12.90;10.57;;;;;;;27.98;36.63;98709.97;8415279;28;20210;-67
2021/09/06 09:45:23;;;;;;;17.93;10.40;;;;;;;28.23;36.18;98701.03;8415385;28;20204;-92
2021/09/06 09:49:27;;;;;;;14.07;9.77;;;;;;;28.21;36.19;98708.38;8412753;28;20221;-68
2021/09/06 09:53:32;;;;;;;14.53;10.07;;;;;;;27.98;34.97;98710.78;8417954;28;20522;-67
2021/09/06 09:57:35;;;;;;;12.33;10.23;;;;;;;27.73;34.37;98709.00;8420834;28;20248;-68
2021/09/06 10:01:41;;;;;;;19.33;9.70;;;;;;;28.17;34.95;98703.53;8420835;28;20203;-65
2021/09/06 10:05:44;;;;;;;10.23;8.77;;;;;;;28.24;34.37;98708.06;8420961;28;20322;-73
2021/09/06 10:09:49;;;;;;;12.83;9.10;;;;;;;28.38;34.11;98692.44;8420579;28;20202;-65
2021/09/06 10:13:52;;;;;;;10.97;8.10;;;;;;;28.70;32.83;98696.97;8420604;28;20485;-69
2021/09/06 10:17:56;;;;;;;12.50;8.53;;;;;;;28.97;31.86;98685.13;8425312;28;20262;-71
2021/09/06 10:21:59;;;;;;;13.67;8.43;;;;;;;28.88;31.80;98686.13;8422943;28;20365;-68
2021/09/06 10:26:10;;;;;;;11.70;9.10;;;;;;;28.27;31.91;98683.78;8403859;28;20201;-76
2021/09/06 10:30:14;;;;;;;13.07;8.13;;;;;;;28.95;33.13;98678.31;8415850;28;20404;-67
2021/09/06 10:34:22;;;;;;;9.60;8.57;;;;;;;28.91;30.94;98671.66;8424316;28;20311;-68
2021/09/06 10:38:37;;;;;;;11.10;8.33;;;;;;;29.21;31.07;98673.63;8453646;28;20224;-67
2021/09/06 10:42:42;;;;;;;10.63;7.60;;;;;;;29.36;30.22;98673.78;8437232;28;20209;-68
2021/09/06 10:46:53;;;;;;;10.23;8.23;;;;;;;29.46;30.04;98656.75;8419842;28;20210;-67
2021/09/06 10:50:57;;;;;;;9.27;8.10;;;;;;;29.47;30.22;98664.56;8420762;28;20203;-67
2021/09/06 10:55:00;;;;;;;12.50;8.50;;;;;;;29.35;29.84;98666.75;8452850;28;20204;-67
2021/09/06 10:59:04;;;;;;;11.97;8.20;;;;;;;29.21;29.96;98662.97;8452672;28;20223;-67
2021/09/06 11:03:07;;;;;;;8.23;7.40;;;;;;;29.66;29.73;98668.66;8436293;28;20202;-68
2021/09/06 11:07:10;;;;;;;13.07;7.87;;;;;;;29.79;29.48;98660.13;8418696;28;20243;-68
2021/09/06 11:11:14;;;;;;;9.47;7.50;;;;;;;29.97;29.45;98662.56;8418845;28;20210;-68
2021/09/06 11:15:24;;;;;;;11.03;7.47;;;;;;;30.07;29.71;98656.97;8418763;28;20380;-68
2021/09/06 11:19:29;;;;;;;10.53;7.80;;;;;;;30.33;29.04;98662.00;8418519;28;20231;-68
2021/09/06 11:23:33;;;;;;;8.77;7.43;;;;;;;30.45;29.15;98662.44;8418294;28;20384;-66
2021/09/06 11:27:37;;;;;;;8.43;7.27;;;;;;;30.33;28.85;98659.31;8440670;28;20200;-67
2021/09/06 11:31:47;;;;;;;7.43;6.63;;;;;;;30.43;28.61;98656.44;8451673;28;20206;-68
2021/09/06 11:35:50;;;;;;;9.87;7.10;;;;;;;30.07;28.50;98655.13;8451505;28;20234;-68
2021/09/06 11:39:54;;;;;;;10.17;6.80;;;;;;;30.35;29.16;98652.81;8451367;28;20240;-67
2021/09/06 11:43:57;;;;;;;7.63;6.80;;;;;;;30.70;28.87;98652.38;8451637;28;20198;-68
2021/09/06 11:48:08;;;;;;;7.13;6.40;;;;;;;30.36;28.28;98650.97;8451428;28;20205;-68
2021/09/06 11:52:11;;;;;;;7.33;6.23;;;;;;;30.66;28.00;98643.88;8451040;28;20201;-68
2021/09/06 11:56:15;;;;;;;11.67;6.23;;;;;;;30.38;27.61;98651.63;8450434;28;20202;-68
2021/09/06 12:00:23;;;;;;;6.80;6.07;;;;;;;30.80;27.72;98644.91;8451085;28;20394;-68
2021/09/06 12:04:37;;;;;;;10.40;5.70;;;;;;;30.84;27.87;98650.72;8423057;28;20238;-68
2021/09/06 12:08:50;;;;;;;8.53;6.70;;;;;;;30.89;27.45;98643.00;8417106;28;20203;-68
2021/09/06 12:13:20;;;;;;;12.77;6.50;;;;;;;30.91;27.27;98643.69;8416872;28;20195;-69
2021/09/06 12:17:34;;;;;;;6.23;5.63;;;;;;;31.20;27.56;98650.91;8416414;28;20229;-68
2021/09/06 12:21:43;;;;;;;7.87;5.87;;;;;;;31.20;28.15;98642.06;8416636;28;20222;-68
2021/09/06 12:25:52;;;;;;;8.70;5.97;;;;;;;31.16;26.84;98650.44;8423460;28;20191;-68
2021/09/06 12:29:59;;;;;;;6.77;5.40;;;;;;;31.43;26.25;98637.41;8449936;28;20204;-68
2021/09/06 12:34:02;;;;;;;6.87;5.97;;;;;;;31.32;25.98;98643.25;8449679;28;20232;-68
2021/09/06 12:38:06;;;;;;;6.10;5.43;;;;;;;30.93;26.75;98645.16;8431393;28;20229;-69
2021/09/06 12:42:09;;;;;;;6.97;5.50;;;;;;;29.76;28.34;98647.97;8398577;28;20199;-70
2021/09/06 12:46:12;;;;;;;7.13;5.53;;;;;;;30.58;26.91;98646.63;8393828;28;20196;-69
2021/09/06 12:50:15;;;;;;;5.60;5.10;;;;;;;30.88;27.15;98641.34;8382789;28;20206;-70
2021/09/06 12:54:19;;;;;;;6.97;5.47;;;;;;;30.87;26.06;98637.84;8382760;28;20215;-69
2021/09/06 12:58:22;;;;;;;8.20;5.47;;;;;;;30.73;26.34;98628.78;8382479;28;20296;-70
2021/09/06 13:02:25;;;;;;;6.60;4.57;;;;;;;30.74;25.32;98634.97;8392350;28;20201;-69
2021/09/06 13:06:28;;;;;;;5.73;5.13;;;;;;;30.80;25.03;98628.88;8415614;28;20237;-70
2021/09/06 13:10:32;;;;;;;10.33;6.63;;;;;;;30.75;25.42;98625.94;8415640;28;20205;-69
2021/09/06 13:14:36;;;;;;;7.23;5.30;;;;;;;30.99;26.20;98627.56;8415738;28;20204;-67
2021/09/06 13:18:40;;;;;;;10.73;5.30;;;;;;;30.74;26.08;98625.09;8415628;28;20223;-67
2021/09/06 13:22:43;;;;;;;6.47;5.87;;;;;;;30.72;25.85;98626.28;8415501;28;20207;-69
2021/09/06 13:26:47;;;;;;;5.90;5.40;;;;;;;30.72;26.14;98620.94;8416058;28;20205;-66
2021/09/06 13:30:49;;;;;;;8.27;5.47;;;;;;;30.97;26.22;98624.22;8421885;28;20212;-67
2021/09/06 13:34:52;;;;;;;9.50;5.60;;;;;;;30.79;26.14;98624.56;8421676;28;20220;-67
2021/09/06 13:38:57;;;;;;;8.47;6.07;;;;;;;30.49;25.83;98623.66;8421596;28;20226;-67
2021/09/06 13:43:02;;;;;;;7.03;5.77;;;;;;;30.56;26.03;98613.91;8417776;28;20224;-67
2021/09/06 13:47:05;;;;;;;6.03;5.20;;;;;;;30.68;25.71;98615.13;8411666;28;20202;-67
2021/09/06 13:51:09;;;;;;;4.93;4.53;;;;;;;30.71;25.34;98613.91;8421242;28;20399;-67
2021/09/06 13:55:12;;;;;;;6.20;5.50;;;;;;;30.91;25.13;98616.94;8421101;28;20369;-67
2021/09/06 13:59:18;;;;;;;5.83;5.27;;;;;;;30.80;25.10;98612.84;8420069;28;20227;-67
2021/09/06 14:03:20;;;;;;;7.60;5.23;;;;;;;30.54;25.83;98619.44;8420703;28;20208;-68
2021/09/06 14:07:24;;;;;;;7.33;5.67;;;;;;;30.63;25.28;98611.34;8420653;28;20237;-68
2021/09/06 14:11:27;;;;;;;7.80;5.93;;;;;;;30.67;25.53;98609.97;8420866;28;20377;-67
2021/09/06 14:15:34;;;;;;;5.83;5.23;;;;;;;30.69;25.40;98613.28;8421005;28;20273;-67
2021/09/06 14:19:37;;;;;;;5.30;4.80;;;;;;;30.65;25.69;98611.97;8420304;28;20226;-68
2021/09/06 14:23:40;;;;;;;5.50;5.00;;;;;;;30.29;25.50;98612.59;8420588;28;20267;-67
2021/09/06 14:27:43;;;;;;;6.00;5.50;;;;;;;30.24;25.57;98607.78;8443806;28;20202;-67
2021/09/06 14:31:48;;;;;;;6.67;5.17;;;;;;;30.35;26.02;98607.41;8453609;28;20211;-71
2021/09/06 14:35:57;;;;;;;6.77;4.90;;;;;;;30.21;26.16;98603.66;8453655;28;20227;-71
2021/09/06 14:40:05;;;;;;;5.60;5.10;;;;;;;29.59;27.00;98603.66;8452874;28;20338;-70
2021/09/06 14:44:09;;;;;;;7.00;5.40;;;;;;;28.98;27.67;98606.84;8453568;28;20202;-71
2021/09/06 14:48:15;;;;;;;5.53;5.03;;;;;;;28.69;29.35;98607.38;8453217;28;20393;-70
2021/09/06 14:52:18;;;;;;;7.50;5.43;;;;;;;29.17;28.00;98605.66;8453237;28;20224;-70
2021/09/06 14:56:21;;;;;;;6.50;5.10;;;;;;;29.38;28.08;98599.75;8452998;28;20208;-70
2021/09/06 15:00:24;;;;;;;6.03;5.27;;;;;;;29.48;28.14;98601.38;8452619;28;20230;-70
2021/09/06 15:04:28;;;;;;;7.13;5.60;;;;;;;29.32;28.36;98603.09;8425115;28;20505;-70
2021/09/06 15:08:31;;;;;;;5.73;5.23;;;;;;;29.41;28.63;98588.72;8418767;28;20206;-71
2021/09/06 15:12:34;;;;;;;11.93;5.80;;;;;;;29.39;28.97;98601.38;8418718;28;20214;-71
2021/09/06 15:16:39;;;;;;;5.40;4.90;;;;;;;29.38;29.59;98598.91;8418678;28;20483;-71
2021/09/06 15:20:44;;;;;;;6.57;5.03;;;;;;;29.42;29.44;98592.22;8418652;28;20230;-71
2021/09/06 15:24:54;;;;;;;6.07;5.47;;;;;;;29.27;29.07;98597.44;8418521;28;20209;-71
2021/09/06 15:28:57;;;;;;;6.77;5.43;;;;;;;29.10;29.51;98588.63;8385202;28;20273;-71
2021/09/06 15:33:01;;;;;;;7.60;5.90;;;;;;;28.98;29.67;98587.34;8384917;28;20222;-71
2021/09/06 15:37:06;;;;;;;7.37;5.43;;;;;;;28.91;29.93;98583.69;8384896;28;20203;-71
2021/09/06 15:41:10;;;;;;;8.87;5.00;;;;;;;28.87;29.64;98582.38;8384671;28;20230;-71
2021/09/06 15:45:15;;;;;;;9.13;5.13;;;;;;;28.79;30.16;98592.06;8384752;28;20511;-71
2021/09/06 15:49:21;;;;;;;6.50;5.33;;;;;;;28.44;29.61;98585.22;8383853;28;20207;-70
2021/09/06 15:53:25;;;;;;;6.13;5.53;;;;;;;28.31;29.63;98577.75;8384424;28;20203;-70
2021/09/06 15:57:28;;;;;;;7.20;5.17;;;;;;;28.20;30.17;98575.41;8384100;28;20201;-70
2021/09/06 16:01:31;;;;;;;5.33;4.67;;;;;;;27.98;30.46;98580.38;8386400;28;20227;-71
2021/09/06 16:05:34;;;;;;;6.03;5.07;;;;;;;27.79;31.23;98581.47;8416659;28;20539;-70
2021/09/06 16:09:40;;;;;;;6.07;5.43;;;;;;;27.63;30.87;98570.81;8416903;28;20204;-71
2021/09/06 16:13:42;;;;;;;5.90;5.30;;;;;;;27.48;31.44;98573.25;8417010;28;20201;-71
2021/09/06 16:17:45;;;;;;;6.87;5.10;;;;;;;27.32;32.74;98571.34;8416817;28;20199;-71
2021/09/06 16:21:48;;;;;;;6.07;5.33;;;;;;;27.22;33.40;98575.94;8416364;28;20231;-69
2021/09/06 16:25:52;;;;;;;7.43;5.50;;;;;;;27.11;33.98;98574.38;8424202;28;20198;-70
2021/09/06 16:29:55;;;;;;;9.23;6.20;;;;;;;26.99;34.35;98576.47;8450099;28;20205;-69
2021/09/06 16:34:00;;;;;;;7.57;5.60;;;;;;;26.85;34.46;98575.25;8449912;28;20391;-69
2021/09/06 16:38:03;;;;;;;7.63;6.37;;;;;;;26.82;34.16;98578.22;8449713;28;20207;-70
2021/09/06 16:42:09;;;;;;;9.37;5.63;;;;;;;26.73;34.14;98573.81;8449783;28;20207;-71
2021/09/06 16:46:12;;;;;;;6.53;5.93;;;;;;;26.65;35.42;98579.09;8383285;28;20203;-70
2021/09/06 16:50:15;;;;;;;24.90;20.37;;;;;;;26.57;36.42;98579.84;8383126;28;20277;-70
2021/09/06 16:54:17;;;;;;;25.17;19.07;;;;;;;26.49;37.17;98577.13;8383055;28;20206;-70
2021/09/06 16:58:22;;;;;;;12.20;9.43;;;;;;;26.34;37.90;98580.34;8382644;28;20207;-71
2021/09/06 17:02:24;;;;;;;22.63;16.43;;;;;;;26.24;39.45;98576.94;8417654;28;20228;-71
2021/09/06 17:06:27;;;;;;;48.03;37.73;;;;;;;26.13;40.41;98579.81;8456398;28;20306;-71
2021/09/06 17:10:30;;;;;;;25.53;19.63;;;;;;;26.03;41.56;98582.56;8456153;28;20210;-73
2021/09/06 17:14:36;;;;;;;22.60;17.37;;;;;;;25.97;41.72;98585.81;8456055;28;20207;-71
2021/09/06 17:18:39;;;;;;;15.93;11.13;;;;;;;25.89;42.21;98575.94;8455843;28;20245;-73
2021/09/06 17:22:42;;;;;;;12.27;7.60;;;;;;;25.77;42.94;98569.16;8455767;28;20200;-73
2021/09/06 17:26:45;;;;;;;9.83;6.97;;;;;;;25.70;43.78;98576.91;8440115;28;20200;-74
2021/09/06 17:30:49;;;;;;;12.50;7.23;;;;;;;25.54;44.40;98574.88;8422238;28;20213;-73
2021/09/06 17:34:52;;;;;;;17.23;11.53;;;;;;;25.39;45.27;98568.41;8421088;28;20227;-72
2021/09/06 17:38:54;;;;;;;15.97;10.77;;;;;;;25.35;45.41;98581.13;8421668;28;20396;-72
2021/09/06 17:42:58;;;;;;;13.00;8.23;;;;;;;25.32;45.45;98585.88;8421783;28;20212;-72
2021/09/06 17:47:02;;;;;;;8.80;7.00;;;;;;;25.20;46.17;98571.97;8421688;28;20207;-72
2021/09/06 17:51:05;;;;;;;31.13;7.37;;;;;;;25.08;46.92;98578.44;8421408;28;20387;-72
2021/09/06 17:55:10;;;;;;;9.27;6.27;;;;;;;24.97;47.22;98576.78;8421392;28;20203;-72
2021/09/06 17:59:13;;;;;;;10.97;6.53;;;;;;;24.92;47.17;98573.75;8421235;28;20407;-72
2021/09/06 18:03:17;;;;;;;10.70;6.50;;;;;;;24.74;47.48;98576.31;8437976;28;20217;-72
2021/09/06 18:07:20;;;;;;;11.63;6.50;;;;;;;24.73;47.67;98582.56;8449463;28;20429;-72
2021/09/06 18:11:23;;;;;;;11.57;7.10;;;;;;;24.50;48.34;98584.69;8403195;28;20198;-72
2021/09/06 18:15:26;;;;;;;10.07;7.70;;;;;;;24.31;48.58;98578.44;8399037;28;20204;-73
2021/09/06 18:19:32;;;;;;;14.07;8.00;;;;;;;24.29;48.41;98590.13;8402482;28;20228;-73
2021/09/06 18:23:35;;;;;;;11.90;7.50;;;;;;;24.22;48.68;98591.66;8402988;28;20203;-73
2021/09/06 18:27:38;;;;;;;10.53;7.03;;;;;;;24.04;49.11;98596.81;8405503;28;20195;-72
2021/09/06 18:31:42;;;;;;;11.70;7.73;;;;;;;24.01;49.31;98605.88;8402701;28;20197;-72
2021/09/06 18:35:47;;;;;;;10.07;6.97;;;;;;;23.98;49.31;98609.59;8402538;28;20213;-73
2021/09/06 18:39:50;;;;;;;10.70;7.30;;;;;;;23.88;49.04;98613.22;8404603;28;20218;-73
2021/09/06 18:43:53;;;;;;;10.53;7.90;;;;;;;23.86;48.84;98612.53;8402471;28;20390;-73
2021/09/06 18:47:56;;;;;;;10.73;7.77;;;;;;;23.83;48.63;98613.63;8402131;28;20219;-73
2021/09/06 18:52:00;;;;;;;9.90;8.07;;;;;;;23.83;48.85;98615.44;8406346;28;20205;-70
2021/09/06 18:56:03;;;;;;;11.47;7.73;;;;;;;23.74;49.08;98609.13;8408209;28;20480;-74
2021/09/06 19:00:07;;;;;;;11.67;8.17;;;;;;;23.65;49.40;98609.97;8401797;28;20222;-73